Kahuku, Hawaii
Current Conditions -  °F | °C
As of 7:58 PM on Sunday 25 Jan 2015 (Local Time) from PHHI Reporting Station
Scattered Clouds Scattered Clouds  
Wind Chill: 64°   Ceiling: Unl
Heat Index: 64°   Visibility: 10mi
Dew Point: 60°   Wind: 7mph
Humidity: 85%   Direction: 310°NW
Pressure: 30.04"   Gusts: NA
Location:  21.67°N, 157.94°W
Report Text: PHHI 260558Z AUTO 31006KT 10SM SCT018 18/16 A3004 RMK AO2 SLP168 T01800155 10221 20180 52011 $
Loading
Personal Weather Stations






























Interactive Weather Map New forecast layout! Learn more

10-Day Weather Forecast

Advertisements
Track Severe Weather on mobile